Time;durP1;ratioP1;P1;durP2;ratioP2;P2;SDS_P1;SDS_P2;PMS_P1;PMS_P2;Temp;Humidity;BMP_temperature;BMP_pressure;BME280_temperature;BME280_humidity;BME280_pressure;Samples;Min_cycle;Max_cycle;Signal;HPM_P1;HPM_P2
2023/03/02 00:02:42;;;;;;;44.33;19.85;;;1.70;99.90;;;;;;20925723;28;20040;-81
2023/03/02 00:12:43;;;;;;;47.92;21.17;;;1.50;99.90;;;;;;20880166;28;20495;-78
2023/03/02 00:22:46;;;;;;;53.03;21.95;;;1.40;99.90;;;;;;20822874;28;20054;-81
2023/03/02 00:32:47;;;;;;;58.55;21.08;;;1.40;99.90;;;;;;20820068;28;20040;-81
2023/03/02 00:42:47;;;;;;;50.47;20.85;;;1.40;99.90;;;;;;20802814;28;20057;-79
2023/03/02 00:52:48;;;;;;;44.35;20.55;;;1.60;99.90;;;;;;20837198;28;20080;-79
2023/03/02 01:02:49;;;;;;;48.58;20.73;;;1.70;99.90;;;;;;20837004;28;20575;-79
2023/03/02 01:12:50;;;;;;;44.90;20.52;;;1.70;99.90;;;;;;20816750;28;20392;-78
2023/03/02 01:22:51;;;;;;;49.53;20.55;;;1.70;99.90;;;;;;20815093;28;20036;-82
2023/03/02 01:32:52;;;;;;;43.65;20.63;;;1.80;99.90;;;;;;20815611;28;20133;-81
2023/03/02 01:43:01;;;;;;;48.58;21.20;;;1.70;99.90;;;;;;20815885;28;20523;-80
2023/03/02 01:53:02;;;;;;;44.40;19.38;;;1.70;99.90;;;;;;20821491;28;20059;-80
2023/03/02 02:03:13;;;;;;;42.30;18.73;;;1.70;99.90;;;;;;20830330;28;20131;-81
2023/03/02 02:13:16;;;;;;;45.03;20.27;;;1.80;99.90;;;;;;20845905;28;20029;-80
2023/03/02 02:23:28;;;;;;;46.17;21.23;;;1.60;99.90;;;;;;20828531;28;20071;-79
2023/03/02 02:33:31;;;;;;;58.25;22.73;;;1.60;99.90;;;;;;20849217;28;20385;-79
2023/03/02 02:43:33;;;;;;;53.50;23.10;;;1.60;99.90;;;;;;20845493;28;20041;-79
2023/03/02 02:53:57;;;;;;;52.42;21.38;;;1.60;99.90;;;;;;20826424;28;20401;-81
2023/03/02 03:04:02;;;;;;;42.15;18.85;;;1.60;99.90;;;;;;20841265;28;20576;-81
2023/03/02 03:14:14;;;;;;;47.42;19.17;;;1.70;99.90;;;;;;20897047;28;20033;-80
2023/03/02 03:24:16;;;;;;;50.78;21.15;;;1.70;99.90;;;;;;20924931;28;20064;-79
2023/03/02 03:34:17;;;;;;;50.75;22.42;;;1.70;99.90;;;;;;20907359;28;20407;-80
2023/03/02 03:44:18;;;;;;;52.50;21.63;;;1.50;99.90;;;;;;20829107;28;20030;-80
2023/03/02 03:54:19;;;;;;;48.20;22.02;;;1.50;99.90;;;;;;20839899;28;20109;-81
2023/03/02 04:04:25;;;;;;;52.92;21.02;;;1.60;99.90;;;;;;20838543;28;20037;-81
2023/03/02 04:14:26;;;;;;;60.30;23.52;;;1.60;99.90;;;;;;20817682;28;20427;-80
2023/03/02 04:24:29;;;;;;;42.90;19.40;;;1.60;99.90;;;;;;20818208;28;20128;-79
2023/03/02 04:34:33;;;;;;;47.90;22.17;;;1.70;99.90;;;;;;20821270;28;20444;-80
2023/03/02 04:44:34;;;;;;;53.53;22.30;;;1.60;99.90;;;;;;20881802;28;20032;-78
2023/03/02 04:54:35;;;;;;;58.17;22.23;;;1.60;99.90;;;;;;20907146;28;20039;-79
2023/03/02 05:04:36;;;;;;;49.70;21.17;;;1.50;99.90;;;;;;20920906;28;20090;-82
2023/03/02 05:14:37;;;;;;;56.72;21.45;;;1.60;99.90;;;;;;20819830;28;20045;-80
2023/03/02 05:24:37;;;;;;;52.67;21.27;;;1.60;99.90;;;;;;20828724;28;20040;-78
2023/03/02 05:34:38;;;;;;;52.33;21.33;;;1.70;99.90;;;;;;20847120;28;20383;-79
2023/03/02 05:44:39;;;;;;;50.75;22.42;;;1.90;99.90;;;;;;20868418;28;20071;-78
2023/03/02 05:54:40;;;;;;;55.20;22.90;;;1.80;99.90;;;;;;20802755;28;20029;-79
2023/03/02 06:04:42;;;;;;;43.20;18.55;;;1.80;99.90;;;;;;20824600;28;20033;-78
2023/03/02 06:14:43;;;;;;;42.95;20.95;;;2.10;99.90;;;;;;20827119;28;20206;-80
2023/03/02 06:24:44;;;;;;;42.72;19.40;;;2.10;99.90;;;;;;20800999;28;20511;-78
2023/03/02 06:34:44;;;;;;;47.35;19.63;;;2.10;99.90;;;;;;20853821;28;20116;-79
2023/03/02 06:44:45;;;;;;;47.40;20.70;;;2.20;99.90;;;;;;20901027;28;20056;-79
2023/03/02 06:54:46;;;;;;;49.03;21.17;;;2.10;99.90;;;;;;20941980;28;20111;-80
2023/03/02 07:04:47;;;;;;;49.30;21.10;;;2.10;99.90;;;;;;20899845;28;20064;-82
2023/03/02 07:14:47;;;;;;;50.22;22.73;;;2.10;99.90;;;;;;20849490;28;20400;-81
2023/03/02 07:24:48;;;;;;;51.88;21.27;;;2.20;99.90;;;;;;20871415;28;20484;-79
2023/03/02 07:34:49;;;;;;;51.20;21.67;;;2.30;99.90;;;;;;20852935;28;20032;-80
2023/03/02 07:44:53;;;;;;;54.60;22.25;;;2.40;99.90;;;;;;20908949;28;20033;-80
2023/03/02 07:54:53;;;;;;;48.60;22.48;;;2.40;99.90;;;;;;20927967;28;20028;-79
2023/03/02 08:04:54;;;;;;;52.22;23.38;;;2.50;99.90;;;;;;20832343;28;20068;-78
2023/03/02 08:14:55;;;;;;;54.22;22.63;;;2.60;99.90;;;;;;20832585;28;20107;-79
2023/03/02 08:24:56;;;;;;;52.67;23.10;;;2.70;99.90;;;;;;20832696;28;20412;-81
2023/03/02 08:34:56;;;;;;;62.35;25.13;;;2.90;99.90;;;;;;20858812;28;20043;-78
2023/03/02 08:44:57;;;;;;;63.40;25.85;;;2.90;99.90;;;;;;20917981;28;20120;-80
2023/03/02 08:54:58;;;;;;;61.78;23.73;;;3.00;99.90;;;;;;20884659;28;20400;-79
2023/03/02 09:04:59;;;;;;;53.33;23.75;;;3.10;99.90;;;;;;20949036;28;20039;-78
2023/03/02 09:14:59;;;;;;;60.40;24.30;;;3.40;99.90;;;;;;20960984;28;20033;-80
2023/03/02 09:25:02;;;;;;;57.78;23.35;;;3.50;99.90;;;;;;20948830;28;20043;-79
2023/03/02 09:35:03;;;;;;;58.08;23.65;;;3.80;99.90;;;;;;20936927;28;20093;-79
2023/03/02 09:45:35;;;;;;;58.35;22.05;;;3.80;99.90;;;;;;20873189;28;20038;-79
2023/03/02 09:55:37;;;;;;;54.83;20.83;;;3.80;99.90;;;;;;20843798;28;20037;-79
2023/03/02 10:05:44;;;;;;;51.83;21.40;;;4.10;99.90;;;;;;20860235;28;20132;-80
2023/03/02 10:16:23;;;;;;;51.30;20.23;;;4.20;99.90;;;;;;20838770;28;20033;-78
2023/03/02 10:26:56;;;;;;;57.47;19.48;;;4.20;99.90;;;;;;20795719;28;20038;-80
2023/03/02 10:36:57;;;;;;;53.97;19.73;;;4.40;99.90;;;;;;20827128;28;20560;-78
2023/03/02 10:46:58;;;;;;;59.30;21.20;;;4.30;99.90;;;;;;20931990;28;20040;-79
2023/03/02 10:57:02;;;;;;;58.13;20.55;;;4.30;99.90;;;;;;20935323;28;20088;-78
2023/03/02 11:07:17;;;;;;;51.83;20.70;;;4.20;99.90;;;;;;20943914;28;20079;-78
2023/03/02 11:17:32;;;;;;;51.22;19.58;;;3.90;99.90;;;;;;20931524;28;20040;-80
2023/03/02 11:27:37;;;;;;;61.88;20.45;;;4.20;99.90;;;;;;20808043;28;20034;-77
2023/03/02 11:37:49;;;;;;;53.35;21.98;;;4.40;99.90;;;;;;20816285;28;20037;-79
2023/03/02 11:47:55;;;;;;;;;;;4.20;99.90;;;;;;20835800;28;20500;-77
2023/03/02 11:58:01;;;;;;;51.70;19.55;;;4.40;99.90;;;;;;20835362;28;19917;-78
2023/03/02 12:08:26;;;;;;;53.67;19.25;;;4.30;99.90;;;;;;20843850;28;20143;-80
2023/03/02 12:18:44;;;;;;;58.97;20.58;;;4.60;99.90;;;;;;20922477;28;20025;-79
2023/03/02 12:29:09;;;;;;;54.95;20.77;;;4.70;99.90;;;;;;20931437;28;20450;-80
2023/03/02 12:39:29;;;;;;;60.85;21.85;;;4.60;99.90;;;;;;20914350;28;20033;-79
2023/03/02 12:49:49;;;;;;;57.72;21.27;;;5.10;99.90;;;;;;20860052;28;20116;-80
2023/03/02 12:59:55;;;;;;;62.65;22.63;;;5.10;99.90;;;;;;20883586;28;20033;-80
2023/03/02 13:09:57;;;;;;;51.72;19.67;;;4.60;99.90;;;;;;20871248;28;20048;-80
2023/03/02 13:20:02;;;;;;;53.00;19.45;;;4.80;99.90;;;;;;20937960;28;20025;-79
2023/03/02 13:30:24;;;;;;;50.78;21.10;;;5.00;99.90;;;;;;20910352;28;20025;-81
2023/03/02 13:40:37;;;;;;;63.00;20.85;;;5.10;99.90;;;;;;20902642;28;20057;-78
2023/03/02 13:50:38;;;;;;;51.20;20.30;;;5.10;99.90;;;;;;20844555;28;20112;-79
2023/03/02 14:00:39;;;;;;;;;;;5.00;99.90;;;;;;20866552;28;20029;-78
2023/03/02 14:10:41;;;;;;;52.83;20.87;;;5.20;99.90;;;;;;20897659;28;19909;-79
2023/03/02 14:20:42;;;;;;;63.28;20.58;;;4.90;99.90;;;;;;20878036;28;20318;-77
2023/03/02 14:30:43;;;;;;;;;;;5.40;99.90;;;;;;20880099;28;20053;-79
2023/03/02 14:40:44;;;;;;;50.03;19.87;;;5.40;99.90;;;;;;20875066;28;20007;-79
2023/03/02 14:50:47;;;;;;;;;;;5.50;99.90;;;;;;20871930;28;20419;-79
2023/03/02 15:00:47;;;;;;;;;;;5.50;99.90;;;;;;20875477;28;20401;-79
2023/03/02 15:10:49;;;;;;;51.00;19.43;;;5.50;99.90;;;;;;20854590;28;19909;-79
2023/03/02 15:20:50;;;;;;;46.35;17.75;;;5.50;99.90;;;;;;20858221;28;20291;-79
2023/03/02 15:30:50;;;;;;;;;;;5.50;99.90;;;;;;20870973;28;20025;-78
2023/03/02 15:40:51;;;;;;;57.25;20.17;;;5.40;99.90;;;;;;20888817;28;19909;-79
2023/03/02 15:50:58;;;;;;;50.90;20.03;;;5.60;99.90;;;;;;20857748;28;20457;-79
2023/03/02 16:01:00;;;;;;;55.22;20.83;;;5.70;99.90;;;;;;20857684;28;20338;-79
2023/03/02 16:11:01;;;;;;;;;;;5.60;99.90;;;;;;20869556;28;20064;-79
2023/03/02 16:21:02;;;;;;;53.43;19.33;;;5.40;99.90;;;;;;20875750;28;19908;-81
2023/03/02 16:31:05;;;;;;;50.35;20.50;;;5.40;99.90;;;;;;20905525;28;20445;-81
2023/03/02 16:41:18;;;;;;;62.67;21.05;;;5.30;99.90;;;;;;20941091;28;20052;-80
2023/03/02 16:51:19;;;;;;;52.28;20.55;;;5.00;99.90;;;;;;20875131;28;20034;-80
2023/03/02 17:01:21;;;;;;;54.78;21.63;;;5.00;99.90;;;;;;20870848;28;20040;-81
2023/03/02 17:11:22;;;;;;;57.20;21.55;;;4.80;99.90;;;;;;20947093;28;20025;-80
2023/03/02 17:21:23;;;;;;;;;;;4.70;99.90;;;;;;20924072;28;20068;-80
2023/03/02 17:31:24;;;;;;;65.33;24.93;;;4.70;99.90;;;;;;20879236;28;19966;-79
2023/03/02 17:41:25;;;;;;;;;;;4.70;99.90;;;;;;20893375;28;20535;-80
2023/03/02 17:51:27;;;;;;;68.88;28.05;;;4.60;99.90;;;;;;20873598;28;19940;-82
2023/03/02 18:01:28;;;;;;;72.53;28.38;;;4.40;99.90;;;;;;20875310;28;20319;-80
2023/03/02 18:11:29;;;;;;;66.47;24.92;;;4.40;99.90;;;;;;20797350;28;20115;-79
2023/03/02 18:21:30;;;;;;;;;;;4.40;99.90;;;;;;20797381;28;20033;-80
2023/03/02 18:31:32;;;;;;;73.22;29.50;;;4.40;99.90;;;;;;20803595;28;19916;-80
2023/03/02 18:41:33;;;;;;;64.30;24.13;;;4.20;99.90;;;;;;20839515;28;20037;-79
2023/03/02 18:51:34;;;;;;;;;;;4.20;99.90;;;;;;20850536;28;20082;-79
2023/03/02 19:01:35;;;;;;;57.95;21.85;;;4.00;99.90;;;;;;20866241;28;19913;-81
2023/03/02 19:11:36;;;;;;;;;;;4.00;99.90;;;;;;20838635;28;20025;-80
2023/03/02 19:21:37;;;;;;;57.88;21.27;;;4.00;99.90;;;;;;20844590;28;20012;-80
2023/03/02 19:31:38;;;;;;;59.35;21.92;;;3.70;99.90;;;;;;20840758;28;20087;-80
2023/03/02 19:41:39;;;;;;;68.00;25.05;;;3.50;99.90;;;;;;20837688;28;20038;-78
2023/03/02 19:51:40;;;;;;;62.20;23.05;;;3.50;99.90;;;;;;20834926;28;20301;-79
2023/03/02 20:01:41;;;;;;;66.50;24.92;;;3.40;99.90;;;;;;20814381;28;20116;-80
2023/03/02 20:11:41;;;;;;;63.90;24.17;;;3.50;99.90;;;;;;20835055;28;20045;-80
2023/03/02 20:21:42;;;;;;;68.95;25.13;;;3.60;99.90;;;;;;20815625;28;20092;-80
2023/03/02 20:31:43;;;;;;;76.75;27.60;;;3.60;99.90;;;;;;20834975;28;20040;-79
2023/03/02 20:41:44;;;;;;;62.58;23.63;;;3.30;99.90;;;;;;20814336;28;20476;-79
2023/03/02 20:51:51;;;;;;;59.03;22.80;;;3.30;99.90;;;;;;20788579;28;20458;-79
2023/03/02 21:01:52;;;;;;;64.10;22.90;;;3.30;99.90;;;;;;20829045;28;20040;-80
2023/03/02 21:11:53;;;;;;;62.03;24.10;;;3.40;99.90;;;;;;20821421;28;20033;-80
2023/03/02 21:21:55;;;;;;;62.65;24.08;;;3.50;99.90;;;;;;20760619;28;20084;-79
2023/03/02 21:31:56;;;;;;;61.35;23.50;;;3.10;99.90;;;;;;20811095;28;20033;-79
2023/03/02 21:41:57;;;;;;;112.15;35.30;;;3.20;99.90;;;;;;20828127;28;20403;-78
2023/03/02 21:51:58;;;;;;;68.22;25.08;;;3.30;99.90;;;;;;20830442;28;20427;-79
2023/03/02 22:01:59;;;;;;;66.50;23.13;;;3.20;99.90;;;;;;20808320;28;20080;-79
2023/03/02 22:12:05;;;;;;;65.43;24.00;;;3.10;99.90;;;;;;20833005;28;20128;-79
2023/03/02 22:22:18;;;;;;;73.40;26.70;;;3.20;99.90;;;;;;20842141;28;20029;-79
2023/03/02 22:32:25;;;;;;;59.88;24.17;;;3.30;99.90;;;;;;20851084;28;20021;-80
2023/03/02 22:42:29;;;;;;;69.50;26.33;;;3.20;99.90;;;;;;20855038;28;20500;-79
2023/03/02 22:52:37;;;;;;;71.72;24.20;;;2.90;99.90;;;;;;20793617;28;20480;-79
2023/03/02 23:02:42;;;;;;;68.32;25.75;;;3.10;99.90;;;;;;20811216;28;20075;-79
2023/03/02 23:12:43;;;;;;;73.53;26.35;;;3.00;99.90;;;;;;20847691;28;20040;-80
2023/03/02 23:22:44;;;;;;;58.75;24.17;;;3.10;99.90;;;;;;20853655;28;20033;-81
2023/03/02 23:32:48;;;;;;;68.25;25.00;;;3.10;99.90;;;;;;20831458;28;20196;-80
2023/03/02 23:42:49;;;;;;;69.68;26.35;;;3.10;99.90;;;;;;20856878;28;20041;-80
2023/03/02 23:52:50;;;;;;;64.75;25.08;;;3.10;99.90;;;;;;20856009;28;20041;-80
